Main page
METAR-TAF:

METAR-TAF

Airports :

Tanagra, Greece

latitude: 38-19N, longitude: 023-32E, elevation: 148 m

METAR: missing

Time: 12:56 (09:56 UTC)

Forecast

The report was made 1 hour and 56 minutes ago, at 08:00 UTC
Forecast valid from 19 at 09 UTC to 19 at 18 UTC
Wind 12 kt from the North
Visibility 10 km or more
Few clouds at a height of 2500 ft

TAF: LGTG 190800Z 1909/1918 35012KT 9999 FEW025

Weather observations and forecasts of more than 4000 airports (METAR and TAF reports).

The available stations are represented by yellow and red dots on the map.

Hover mouse over dot to see the name of the station.

Then click to see weather observations and forecasts.

To change the map : click on the green buttons with a black cross to zoom in, on the green button with a dash to zoom out, or on the green arrows for adjacent maps.


METAR-TAF: